sensor_id;sensor_type;location;lat;lon;timestamp;temperature;humidity
29255;DHT22;16277;48.890;2.306;2023-03-13T00:04:17;15.80;99.90
29255;DHT22;16277;48.890;2.306;2023-03-13T00:19:21;15.70;99.90
29255;DHT22;16277;48.890;2.306;2023-03-13T00:34:26;15.80;99.90
29255;DHT22;16277;48.890;2.306;2023-03-13T00:49:31;15.50;99.90
29255;DHT22;16277;48.890;2.306;2023-03-13T01:04:35;15.50;99.90
29255;DHT22;16277;48.890;2.306;2023-03-13T01:19:40;15.50;99.90
29255;DHT22;16277;48.890;2.306;2023-03-13T01:34:45;15.70;99.90
29255;DHT22;16277;48.890;2.306;2023-03-13T01:49:50;15.70;99.90
29255;DHT22;16277;48.890;2.306;2023-03-13T02:05:07;15.80;99.90
29255;DHT22;16277;48.890;2.306;2023-03-13T02:20:13;15.80;99.90
29255;DHT22;16277;48.890;2.306;2023-03-13T02:35:21;15.70;99.90
29255;DHT22;16277;48.890;2.306;2023-03-13T02:50:27;15.70;99.90
29255;DHT22;16277;48.890;2.306;2023-03-13T03:05:32;15.40;99.90
29255;DHT22;16277;48.890;2.306;2023-03-13T03:20:36;15.60;99.90
29255;DHT22;16277;48.890;2.306;2023-03-13T03:35:41;15.80;99.90
29255;DHT22;16277;48.890;2.306;2023-03-13T03:50:47;15.90;99.90
29255;DHT22;16277;48.890;2.306;2023-03-13T04:05:53;15.70;99.90
29255;DHT22;16277;48.890;2.306;2023-03-13T04:21:04;15.90;99.90
29255;DHT22;16277;48.890;2.306;2023-03-13T04:36:19;15.70;99.90
29255;DHT22;16277;48.890;2.306;2023-03-13T04:51:44;15.90;99.90
29255;DHT22;16277;48.890;2.306;2023-03-13T05:07:04;16.10;99.90
29255;DHT22;16277;48.890;2.306;2023-03-13T05:22:27;15.70;99.90
29255;DHT22;16277;48.890;2.306;2023-03-13T05:37:50;15.80;99.90
29255;DHT22;16277;48.890;2.306;2023-03-13T05:53:14;16.00;99.90
29255;DHT22;16277;48.890;2.306;2023-03-13T06:08:36;15.80;99.90
29255;DHT22;16277;48.890;2.306;2023-03-13T06:23:41;15.80;99.90
29255;DHT22;16277;48.890;2.306;2023-03-13T06:38:46;15.90;99.90
29255;DHT22;16277;48.890;2.306;2023-03-13T06:53:50;15.70;99.90
29255;DHT22;16277;48.890;2.306;2023-03-13T07:08:55;15.80;99.90
29255;DHT22;16277;48.890;2.306;2023-03-13T07:24:00;15.80;99.90
29255;DHT22;16277;48.890;2.306;2023-03-13T07:39:04;15.60;99.90
29255;DHT22;16277;48.890;2.306;2023-03-13T07:54:09;15.80;99.90
29255;DHT22;16277;48.890;2.306;2023-03-13T08:09:14;16.10;99.90
29255;DHT22;16277;48.890;2.306;2023-03-13T08:24:18;16.00;99.90
29255;DHT22;16277;48.890;2.306;2023-03-13T08:39:23;16.10;99.90
29255;DHT22;16277;48.890;2.306;2023-03-13T08:54:27;15.90;99.90
29255;DHT22;16277;48.890;2.306;2023-03-13T09:09:32;16.00;99.90
29255;DHT22;16277;48.890;2.306;2023-03-13T09:24:36;16.10;99.90
29255;DHT22;16277;48.890;2.306;2023-03-13T09:39:43;16.10;99.90
29255;DHT22;16277;48.890;2.306;2023-03-13T09:54:51;16.10;99.90
29255;DHT22;16277;48.890;2.306;2023-03-13T10:09:59;16.10;99.90
29255;DHT22;16277;48.890;2.306;2023-03-13T10:25:07;16.40;99.90
29255;DHT22;16277;48.890;2.306;2023-03-13T10:40:19;16.70;99.90
29255;DHT22;16277;48.890;2.306;2023-03-13T10:55:25;16.80;99.90
29255;DHT22;16277;48.890;2.306;2023-03-13T11:10:29;16.80;99.90
29255;DHT22;16277;48.890;2.306;2023-03-13T11:25:38;17.30;99.90
29255;DHT22;16277;48.890;2.306;2023-03-13T11:40:54;17.50;99.90
29255;DHT22;16277;48.890;2.306;2023-03-13T11:56:07;17.20;99.90
29255;DHT22;16277;48.890;2.306;2023-03-13T12:11:19;17.00;99.90
29255;DHT22;16277;48.890;2.306;2023-03-13T12:26:34;17.10;99.90
29255;DHT22;16277;48.890;2.306;2023-03-13T12:41:42;17.20;99.90
29255;DHT22;16277;48.890;2.306;2023-03-13T12:56:57;17.00;99.90
29255;DHT22;16277;48.890;2.306;2023-03-13T13:12:17;17.20;99.90
29255;DHT22;16277;48.890;2.306;2023-03-13T13:27:45;17.30;99.90
29255;DHT22;16277;48.890;2.306;2023-03-13T13:42:51;18.20;99.90
29255;DHT22;16277;48.890;2.306;2023-03-13T13:58:02;18.20;99.90
29255;DHT22;16277;48.890;2.306;2023-03-13T14:13:13;18.60;99.90
29255;DHT22;16277;48.890;2.306;2023-03-13T14:28:21;18.70;99.90
29255;DHT22;16277;48.890;2.306;2023-03-13T14:43:29;17.90;99.90
29255;DHT22;16277;48.890;2.306;2023-03-13T14:58:35;17.60;99.90
29255;DHT22;16277;48.890;2.306;2023-03-13T15:13:40;17.40;99.90
29255;DHT22;16277;48.890;2.306;2023-03-13T15:28:44;17.00;99.90
29255;DHT22;16277;48.890;2.306;2023-03-13T15:43:49;17.30;99.90
29255;DHT22;16277;48.890;2.306;2023-03-13T15:58:57;16.80;99.90
29255;DHT22;16277;48.890;2.306;2023-03-13T16:14:01;16.60;99.90
29255;DHT22;16277;48.890;2.306;2023-03-13T16:29:06;16.60;99.90
29255;DHT22;16277;48.890;2.306;2023-03-13T16:44:10;17.20;99.90
29255;DHT22;16277;48.890;2.306;2023-03-13T16:59:16;16.90;99.90
29255;DHT22;16277;48.890;2.306;2023-03-13T17:14:21;16.80;99.90
29255;DHT22;16277;48.890;2.306;2023-03-13T17:29:25;16.80;99.90
29255;DHT22;16277;48.890;2.306;2023-03-13T17:44:30;16.80;99.90
29255;DHT22;16277;48.890;2.306;2023-03-13T17:59:35;16.50;99.90
29255;DHT22;16277;48.890;2.306;2023-03-13T18:14:40;16.30;99.90
29255;DHT22;16277;48.890;2.306;2023-03-13T18:29:45;16.50;99.90
29255;DHT22;16277;48.890;2.306;2023-03-13T18:44:51;16.00;99.90
29255;DHT22;16277;48.890;2.306;2023-03-13T18:59:56;15.90;99.90
29255;DHT22;16277;48.890;2.306;2023-03-13T19:15:00;16.00;99.90
29255;DHT22;16277;48.890;2.306;2023-03-13T19:30:13;15.90;99.90
29255;DHT22;16277;48.890;2.306;2023-03-13T19:45:18;15.50;99.90
29255;DHT22;16277;48.890;2.306;2023-03-13T20:00:25;15.30;99.90
29255;DHT22;16277;48.890;2.306;2023-03-13T20:15:30;15.20;99.90
29255;DHT22;16277;48.890;2.306;2023-03-13T20:30:37;15.30;99.90
29255;DHT22;16277;48.890;2.306;2023-03-13T20:45:43;15.10;99.90
29255;DHT22;16277;48.890;2.306;2023-03-13T21:00:48;15.20;99.90
